Terminal Aerodrome Forecast
Issued by NWS

Home | Current Version | Previous Version | Graphics & Text | Print | Product List | Glossary On
Versions: 1 2 3 4 5 6 7 8 9 10 11 12 13 14 15 16 17 18 19
543
FTUS43 KGRB 231729
TAFAUW
TAF
KAUW 231729Z 2318/2418 15015G22KT P6SM OVC050
     FM240000 14008KT P6SM -RA OVC035 WS020/18030KT
     FM240300 14007KT 5SM -RA BR SCT015 OVC025 WS020/23040KT
      TEMPO 2403/2407 2SM RA BR BKN015
     FM240700 VRB03KT 3SM -RA BR OVC010 WS020/25035KT
     FM241000 VRB03KT 4SM BR VCSH OVC005
     FM241500 04040KT 3SM -RA BR OVC005=

USA.gov is the U.S. government's official web portal to all federal, state and local government web resources and services.